Terminal Aerodrome Forecast
Issued by NWS

Home | Current Version | Previous Version | Text Only | Print | Product List | Glossary On
Versions: 1 2 3 4 5 6 7 8 9 10 11 12 13 14 15 16 17 18 19
000
FTUS44 KOHX 021100
TAFCKV
TAF
KCKV 021125Z 0212/0312 17006KT P6SM SKC
     FM021500 17008G15KT P6SM SCT045
     FM021900 17010G18KT P6SM VCTS BKN040CB
     FM030300 18011KT 6SM TSRA BR OVC035CB
     FM030600 19010KT 4SM -TSRA BR OVC025CB=

USA.gov is the U.S. government's official web portal to all federal, state and local government web resources and services.